Time;durP1;ratioP1;P1;durP2;ratioP2;P2;SDS_P1;SDS_P2;PMS_P1;PMS_P2;Temp;Humidity;BMP_temperature;BMP_pressure;BME280_temperature;BME280_humidity;BME280_pressure;Samples;Min_cycle;Max_cycle;Signal;HPM_P1;HPM_P2
2022/02/14 00:00:31;;;;;;;61.00;22.30;;;;;;;-2.41;69.49;102630.78;1861714;75;21702;-64
2022/02/14 00:02:59;;;;;;;54.48;21.62;;;;;;;-2.40;69.59;102628.70;1864819;75;21597;-63
2022/02/14 00:05:28;;;;;;;62.40;24.45;;;;;;;-2.42;69.65;102623.84;1853836;75;21042;-62
2022/02/14 00:07:56;;;;;;;56.25;22.07;;;;;;;-2.42;69.64;102621.27;1862370;75;21090;-61
2022/02/14 00:10:25;;;;;;;58.40;22.62;;;;;;;-2.44;69.67;102624.19;1869423;75;21176;-63
2022/02/14 00:12:54;;;;;;;55.65;22.05;;;;;;;-2.46;69.64;102614.20;1861385;75;21117;-61
2022/02/14 00:15:23;;;;;;;52.23;21.60;;;;;;;-2.49;69.71;102608.94;1826061;76;21357;-61
2022/02/14 00:17:52;;;;;;;51.42;21.12;;;;;;;-2.50;69.72;102608.45;1861237;75;21051;-61
2022/02/14 00:20:21;;;;;;;95.35;30.30;;;;;;;-2.54;69.44;102601.39;1859311;75;21138;-60
2022/02/14 00:22:50;;;;;;;98.47;35.38;;;;;;;-2.54;69.44;102601.39;1870350;75;21059;-60
2022/02/14 00:25:19;;;;;;;113.42;39.00;;;;;;;-2.57;69.76;102593.09;1861708;76;21589;-62
2022/02/14 00:27:48;;;;;;;128.18;43.25;;;;;;;-2.60;69.82;102592.06;1804036;78;21409;-61
2022/02/14 00:30:18;;;;;;;130.07;45.30;;;;;;;-2.61;69.88;102586.45;1829912;77;21062;-62
2022/02/14 00:32:48;;;;;;;128.42;45.30;;;;;;;-2.63;69.95;102586.80;1836644;76;21102;-60
2022/02/14 00:35:17;;;;;;;137.92;45.48;;;;;;;-2.66;70.06;102589.23;1822557;78;21051;-60
2022/02/14 00:37:46;;;;;;;144.10;48.42;;;;;;;-2.67;70.13;102584.87;1857438;76;21071;-61
2022/02/14 00:40:15;;;;;;;154.50;47.90;;;;;;;-2.69;70.19;102586.50;1833078;77;21189;-61
2022/02/14 00:42:45;;;;;;;129.10;45.30;;;;;;;-2.70;70.23;102580.47;1820765;77;21117;-61
2022/02/14 00:45:15;;;;;;;121.80;43.48;;;;;;;-2.73;70.08;102581.23;1861764;76;21470;-60
2022/02/14 00:47:44;;;;;;;117.93;40.00;;;;;;;-2.73;70.08;102581.23;1877074;76;21027;-61
2022/02/14 00:50:14;;;;;;;98.30;34.98;;;;;;;-2.69;70.27;102578.77;1859101;76;21079;-60
2022/02/14 00:52:43;;;;;;;102.72;36.42;;;;;;;-2.69;70.27;102578.77;1837762;77;21103;-64
2022/02/14 00:55:14;;;;;;;100.07;36.03;;;;;;;-2.71;70.50;102573.56;1830735;76;21642;-64
2022/02/14 00:57:43;;;;;;;90.12;35.50;;;;;;;-2.66;70.52;102583.66;1837280;76;21587;-60
2022/02/14 01:00:14;;;;;;;92.37;34.75;;;;;;;-2.66;70.53;102584.07;1844369;76;21879;-62
2022/02/14 01:02:43;;;;;;;95.95;36.90;;;;;;;-2.63;70.76;102576.48;1847869;76;21105;-64
2022/02/14 01:05:13;;;;;;;96.50;37.03;;;;;;;-2.63;70.76;102576.48;1850634;77;21171;-65
2022/02/14 01:07:42;;;;;;;90.15;31.55;;;;;;;-2.69;70.91;102560.71;1870406;76;21591;-63
2022/02/14 01:10:12;;;;;;;88.90;32.45;;;;;;;-2.69;70.91;102560.71;1851553;77;21110;-65
2022/02/14 01:12:42;;;;;;;92.72;34.73;;;;;;;-2.66;70.79;102559.57;1840722;77;21149;-62
2022/02/14 01:15:11;;;;;;;103.25;37.17;;;;;;;-2.68;70.65;102558.63;1828219;77;21598;-62
2022/02/14 01:17:40;;;;;;;90.83;32.33;;;;;;;-2.68;70.65;102558.63;1827276;77;21493;-62
2022/02/14 01:20:11;;;;;;;87.42;33.00;;;;;;;-2.69;70.99;102556.84;1830671;77;21132;-63
2022/02/14 01:22:41;;;;;;;97.12;34.30;;;;;;;-2.72;70.96;102562.34;1821415;77;21132;-63
2022/02/14 01:25:11;;;;;;;82.60;33.40;;;;;;;-2.72;70.95;102557.19;1820261;79;21042;-61
2022/02/14 01:27:40;;;;;;;79.90;29.50;;;;;;;-2.74;71.01;102552.79;1820297;79;21505;-62
2022/02/14 01:30:10;;;;;;;78.30;29.12;;;;;;;-2.74;71.01;102552.79;1834535;76;21469;-62
2022/02/14 01:32:39;;;;;;;85.45;29.82;;;;;;;-2.74;71.07;102554.95;1850564;77;21046;-61
2022/02/14 01:35:09;;;;;;;80.20;29.52;;;;;;;-2.76;71.20;102551.42;1847832;77;21559;-63
2022/02/14 01:37:39;;;;;;;62.98;25.90;;;;;;;-2.77;71.26;102548.36;1836266;76;21169;-63
2022/02/14 01:40:10;;;;;;;61.92;23.95;;;;;;;-2.78;71.22;102543.95;1883278;76;21067;-62
2022/02/14 01:42:39;;;;;;;60.43;24.40;;;;;;;-2.79;71.17;102543.95;1883275;76;21098;-61
2022/02/14 01:45:10;;;;;;;59.10;23.98;;;;;;;-2.79;71.22;102549.12;1883191;76;21125;-63
2022/02/14 01:47:40;;;;;;;53.05;22.73;;;;;;;-2.79;71.24;102542.25;1875647;76;21022;-63
2022/02/14 01:50:11;;;;;;;62.27;24.90;;;;;;;-2.79;71.22;102543.54;1867420;76;21012;-62
2022/02/14 01:52:40;;;;;;;55.95;23.32;;;;;;;-2.82;71.25;102533.50;1883335;76;21047;-62
2022/02/14 01:55:11;;;;;;;55.40;23.35;;;;;;;-2.78;71.53;102541.45;1883286;76;21446;-60
2022/02/14 01:57:40;;;;;;;71.57;24.57;;;;;;;-2.76;71.44;102547.55;1883395;76;21098;-58
2022/02/14 02:00:11;;;;;;;52.55;23.02;;;;;;;-2.76;71.44;102547.55;1883303;76;21059;-58
2022/02/14 02:02:40;;;;;;;80.28;30.15;;;;;;;-2.79;71.32;102542.25;1883335;76;21474;-62
2022/02/14 02:05:09;;;;;;;93.70;28.55;;;;;;;-2.80;71.47;102539.91;1875615;76;21055;-61
2022/02/14 02:07:37;;;;;;;81.53;29.27;;;;;;;-2.92;71.10;102535.66;1877092;76;21356;-61
2022/02/14 02:10:09;;;;;;;67.25;28.42;;;;;;;-2.92;71.10;102535.66;1874122;76;21087;-61
2022/02/14 02:12:38;;;;;;;64.80;26.52;;;;;;;-2.94;71.49;102541.58;1834150;78;21101;-61
2022/02/14 02:15:08;;;;;;;65.20;25.70;;;;;;;-2.91;71.46;102546.88;1837462;76;21055;-62
2022/02/14 02:17:38;;;;;;;58.92;22.75;;;;;;;-2.95;71.61;102546.23;1834267;78;21038;-61
2022/02/14 02:20:09;;;;;;;68.85;24.07;;;;;;;-2.95;71.61;102546.23;1834174;78;21067;-62
2022/02/14 02:22:38;;;;;;;63.50;23.95;;;;;;;-2.92;71.62;102545.98;1834083;78;21196;-62
2022/02/14 02:25:08;;;;;;;52.75;21.30;;;;;;;-2.94;71.58;102544.16;1834210;78;21087;-60
2022/02/14 02:27:37;;;;;;;52.78;21.07;;;;;;;-2.94;71.58;102544.16;1863214;76;21018;-61
2022/02/14 02:30:08;;;;;;;58.33;24.85;;;;;;;-2.99;71.61;102535.32;1883290;76;21051;-60
2022/02/14 02:32:38;;;;;;;65.37;23.55;;;;;;;-2.97;71.68;102536.27;1883269;76;21043;-61
2022/02/14 02:35:08;;;;;;;58.95;23.87;;;;;;;-3.00;71.73;102529.70;1858500;76;21474;-58
2022/02/14 02:37:37;;;;;;;54.03;19.25;;;;;;;-3.00;72.20;102532.29;1850757;77;21125;-60
2022/02/14 02:40:08;;;;;;;55.70;22.87;;;;;;;-3.00;72.20;102532.29;1850741;77;21143;-60
2022/02/14 02:42:37;;;;;;;48.28;21.37;;;;;;;-3.04;72.13;102528.69;1850634;77;21090;-60
2022/02/14 02:45:06;;;;;;;48.95;20.72;;;;;;;-3.04;72.44;102525.20;1861567;76;21031;-62
2022/02/14 02:47:35;;;;;;;42.83;19.37;;;;;;;-3.04;72.16;102522.63;1876692;76;21047;-60
2022/02/14 02:50:05;;;;;;;51.58;22.67;;;;;;;-3.04;72.16;102522.63;1876839;76;21137;-61
2022/02/14 02:52:33;;;;;;;44.85;17.32;;;;;;;-3.05;71.76;102519.17;1876982;76;21195;-61
2022/02/14 02:55:03;;;;;;;54.05;20.52;;;;;;;-3.03;71.85;102518.84;1860940;76;21106;-61
2022/02/14 02:57:32;;;;;;;50.10;17.90;;;;;;;-3.04;71.77;102523.91;1820391;79;21118;-61
2022/02/14 03:00:00;;;;;;;41.02;17.17;;;;;;;-3.06;71.80;102520.01;1820184;79;21568;-60
2022/02/14 03:02:29;;;;;;;40.33;15.50;;;;;;;-3.05;71.88;102519.59;1820270;79;21146;-60
2022/02/14 03:04:58;;;;;;;42.78;16.97;;;;;;;-3.06;72.10;102521.30;1820835;76;21040;-61
2022/02/14 03:07:27;;;;;;;38.40;16.37;;;;;;;-3.06;72.10;102521.30;1874357;76;21113;-61
2022/02/14 03:09:56;;;;;;;44.30;17.02;;;;;;;-3.07;71.70;102510.91;1876815;76;21551;-62
2022/02/14 03:12:25;;;;;;;39.65;15.85;;;;;;;-3.07;71.70;102510.91;1876759;76;21419;-62
2022/02/14 03:14:53;;;;;;;39.90;15.55;;;;;;;-3.04;71.87;102509.74;1836223;75;21545;-61
2022/02/14 03:17:22;;;;;;;33.60;14.35;;;;;;;-3.05;71.95;102514.44;1834196;78;21067;-61
2022/02/14 03:19:51;;;;;;;40.12;16.42;;;;;;;-3.06;71.82;102511.37;1834128;78;21087;-60
2022/02/14 03:22:20;;;;;;;40.75;16.07;;;;;;;-3.06;71.82;102511.37;1834174;78;21055;-61
2022/02/14 03:24:48;;;;;;;43.20;15.95;;;;;;;-3.02;71.53;102510.72;1847475;76;21157;-60
2022/02/14 03:27:17;;;;;;;39.88;17.05;;;;;;;-3.03;71.69;102514.09;1845307;78;21207;-60
2022/02/14 03:29:46;;;;;;;38.55;16.17;;;;;;;-3.07;71.98;102501.41;1845385;78;21043;-59
2022/02/14 03:32:15;;;;;;;36.48;17.15;;;;;;;-3.08;72.05;102501.41;1845338;78;21079;-59
2022/02/14 03:34:43;;;;;;;44.08;17.27;;;;;;;-3.13;72.02;102498.22;1856323;76;21114;-61
2022/02/14 03:37:12;;;;;;;38.00;16.75;;;;;;;-3.11;72.08;102505.61;1876819;76;21055;-61
2022/02/14 03:39:41;;;;;;;45.73;16.77;;;;;;;-3.12;72.12;102505.16;1855100;76;21083;-59
2022/02/14 03:42:09;;;;;;;44.55;17.57;;;;;;;-3.15;72.17;102499.84;1825111;77;21091;-60
2022/02/14 03:44:38;;;;;;;46.55;17.52;;;;;;;-3.16;72.21;102499.36;1815067;79;21042;-61
2022/02/14 03:47:10;;;;;;;40.75;16.25;;;;;;;-3.18;72.19;102492.38;1815050;79;21157;-60
2022/02/14 03:49:38;;;;;;;38.78;16.07;;;;;;;-3.23;72.21;102484.42;1814973;78;21066;-59
2022/02/14 03:52:07;;;;;;;43.70;16.10;;;;;;;-3.23;72.16;102493.45;1816050;78;21066;-61
2022/02/14 03:54:36;;;;;;;40.05;16.23;;;;;;;-3.24;72.18;102489.12;1813088;79;21054;-60
2022/02/14 03:57:05;;;;;;;38.30;16.67;;;;;;;-3.25;72.22;102491.63;1813053;79;21051;-59
2022/02/14 03:59:35;;;;;;;38.17;14.65;;;;;;;-3.27;72.27;102490.27;1812956;79;21098;-60
2022/02/14 04:02:04;;;;;;;35.03;15.80;;;;;;;-3.27;72.30;102487.69;1815192;78;21121;-60
2022/02/14 04:04:32;;;;;;;36.40;14.65;;;;;;;-3.33;72.55;102477.11;1813044;79;21136;-61
2022/02/14 04:07:01;;;;;;;39.67;16.67;;;;;;;-3.28;72.42;102485.94;1813052;79;21129;-60
2022/02/14 04:09:30;;;;;;;38.70;16.12;;;;;;;-3.29;72.49;102485.45;1813042;79;21019;-59
2022/02/14 04:11:59;;;;;;;35.40;14.78;;;;;;;-3.29;72.49;102489.31;1813035;79;21145;-60
2022/02/14 04:14:27;;;;;;;36.10;16.75;;;;;;;-3.29;72.69;102489.31;1812992;79;21082;-59
2022/02/14 04:16:56;;;;;;;36.48;15.10;;;;;;;-3.29;72.69;102489.31;1815742;78;21112;-61
2022/02/14 04:19:25;;;;;;;35.30;14.93;;;;;;;-3.27;72.49;102481.24;1814965;79;21169;-60
2022/02/14 04:21:54;;;;;;;37.70;15.80;;;;;;;-3.26;72.48;102485.59;1815112;79;21074;-60
2022/02/14 04:24:22;;;;;;;38.90;15.53;;;;;;;-3.27;72.48;102480.30;1814956;79;21042;-59
2022/02/14 04:26:51;;;;;;;40.38;15.98;;;;;;;-3.29;72.30;102480.30;1841962;77;21147;-61
2022/02/14 04:29:20;;;;;;;42.58;15.13;;;;;;;-3.30;72.36;102487.56;1916430;74;21047;-62
2022/02/14 04:31:49;;;;;;;34.70;14.20;;;;;;;-3.32;72.37;102483.55;1916224;75;21125;-61
2022/02/14 04:34:20;;;;;;;43.00;16.42;;;;;;;-3.33;72.46;102482.11;1916554;74;21480;-61
2022/02/14 04:36:51;;;;;;;34.08;15.32;;;;;;;-3.36;72.24;102482.11;1914016;75;21069;-62
2022/02/14 04:39:20;;;;;;;38.00;15.10;;;;;;;-3.32;72.54;102489.16;1916493;75;21112;-60
2022/02/14 04:41:49;;;;;;;34.45;15.15;;;;;;;-3.29;72.94;102484.16;1916374;75;21489;-60
2022/02/14 04:44:18;;;;;;;37.45;14.78;;;;;;;-3.20;72.68;102488.86;1916247;75;21038;-60
2022/02/14 04:46:48;;;;;;;44.63;14.43;;;;;;;-3.20;72.68;102479.77;1915179;75;21030;-61
2022/02/14 04:49:17;;;;;;;38.48;14.23;;;;;;;-3.22;72.72;102479.77;1883576;76;21111;-60
2022/02/14 04:51:46;;;;;;;42.40;14.20;;;;;;;-2.96;72.71;102499.39;1883484;76;21532;-60
2022/02/14 04:54:14;;;;;;;36.70;14.80;;;;;;;-2.89;72.46;102487.25;1890624;75;21098;-60
2022/02/14 04:56:43;;;;;;;49.30;15.93;;;;;;;-2.89;72.46;102487.25;1916322;75;21108;-61
2022/02/14 04:59:14;;;;;;;42.17;15.58;;;;;;;-2.46;72.50;102490.80;1916232;75;21097;-61
2022/02/14 05:01:45;;;;;;;49.05;14.65;;;;;;;-2.13;72.57;102491.33;1916096;74;21046;-61
2022/02/14 05:04:14;;;;;;;50.85;16.05;;;;;;;-2.13;72.57;102491.33;1914029;74;21120;-62
2022/02/14 05:06:43;;;;;;;40.43;15.03;;;;;;;-1.73;72.66;102489.08;1914385;75;21070;-62
2022/02/14 05:09:11;;;;;;;44.93;14.35;;;;;;;-1.24;72.62;102493.95;1905372;75;21042;-61
2022/02/14 05:11:40;;;;;;;44.05;14.55;;;;;;;-0.89;72.47;102488.78;1891859;76;21045;-60
2022/02/14 05:14:09;;;;;;;41.63;14.78;;;;;;;-0.54;72.52;102491.73;1891895;76;21014;-60
2022/02/14 05:16:38;;;;;;;36.98;11.65;;;;;;;-0.16;72.22;102494.77;1891932;76;21061;-60
2022/02/14 05:19:06;;;;;;;33.33;12.93;;;;;;;0.21;71.92;102494.66;1891933;76;21033;-61
2022/02/14 05:21:35;;;;;;;28.55;11.85;;;;;;;0.55;71.48;102491.81;1892941;75;21061;-62
2022/02/14 05:24:04;;;;;;;41.88;13.65;;;;;;;0.82;71.20;102483.11;1883646;76;21113;-61
2022/02/14 05:26:33;;;;;;;30.85;12.98;;;;;;;1.07;71.00;102485.57;1886018;75;21041;-61
2022/02/14 05:29:02;;;;;;;32.90;13.18;;;;;;;1.30;71.12;102487.91;1891326;76;20997;-62
2022/02/14 05:31:30;;;;;;;31.70;12.68;;;;;;;1.61;71.03;102488.31;1891390;76;21417;-61
2022/02/14 05:33:59;;;;;;;41.30;11.95;;;;;;;2.03;70.52;102495.44;1892969;75;21022;-60
2022/02/14 05:36:28;;;;;;;36.55;12.23;;;;;;;2.46;69.85;102499.46;1891320;76;21025;-62
2022/02/14 05:38:57;;;;;;;37.10;13.05;;;;;;;2.90;69.51;102494.34;1891466;76;21099;-61
2022/02/14 05:41:26;;;;;;;33.73;13.60;;;;;;;3.36;68.88;102493.09;1891335;76;21058;-60
2022/02/14 05:43:54;;;;;;;34.78;11.93;;;;;;;3.69;68.34;102491.52;1891351;76;21045;-61
2022/02/14 05:46:23;;;;;;;28.30;12.82;;;;;;;4.12;67.99;102494.83;1891342;76;21053;-61
2022/02/14 05:48:52;;;;;;;26.87;10.00;;;;;;;4.34;67.02;102491.27;1916946;75;21054;-61
2022/02/14 05:51:21;;;;;;;25.12;10.85;;;;;;;4.41;66.50;102489.20;1918317;75;21034;-61
2022/02/14 05:53:50;;;;;;;22.85;10.25;;;;;;;4.50;65.66;102496.25;1918331;75;21030;-60
2022/02/14 05:56:18;;;;;;;33.08;10.78;;;;;;;4.57;64.78;102483.75;1918441;75;21062;-61
2022/02/14 05:58:47;;;;;;;19.65;9.35;;;;;;;4.72;64.25;102486.59;1916570;74;21096;-62
2022/02/14 06:01:16;;;;;;;15.10;7.55;;;;;;;4.84;63.89;102488.03;1908964;75;21026;-60
2022/02/14 06:03:44;;;;;;;18.07;7.75;;;;;;;5.08;63.52;102485.72;1884878;76;21151;-61
2022/02/14 06:06:13;;;;;;;21.20;7.78;;;;;;;5.32;63.02;102480.75;1884820;76;21463;-61
2022/02/14 06:08:42;;;;;;;22.25;8.45;;;;;;;5.59;62.41;102480.60;1884789;75;21132;-61
2022/02/14 06:11:11;;;;;;;14.38;7.22;;;;;;;5.64;61.67;102476.27;1888750;75;21409;-61
2022/02/14 06:13:39;;;;;;;15.15;7.03;;;;;;;5.71;61.11;102474.59;1916362;75;21027;-61
2022/02/14 06:16:08;;;;;;;19.50;7.78;;;;;;;5.86;60.60;102476.47;1918264;75;21106;-61
2022/02/14 06:18:37;;;;;;;18.00;7.40;;;;;;;6.11;59.86;102473.66;1918359;75;21120;-60
2022/02/14 06:21:06;;;;;;;16.07;6.53;;;;;;;6.41;59.49;102470.36;1918366;75;21093;-62
2022/02/14 06:23:34;;;;;;;16.35;7.30;;;;;;;6.82;58.84;102468.38;1915976;75;21046;-60
2022/02/14 06:26:04;;;;;;;12.15;6.83;;;;;;;7.05;58.32;102461.06;1918363;75;21477;-61
2022/02/14 06:28:38;;;;;;;18.02;6.80;;;;;;;7.31;57.68;102468.55;1911224;74;21059;-62
2022/02/14 06:31:04;;;;;;;18.40;7.72;;;;;;;7.62;57.15;102465.98;1909542;75;21078;-62
2022/02/14 06:33:33;;;;;;;20.35;7.67;;;;;;;7.93;56.20;102463.38;1908119;75;21466;-61
2022/02/14 06:36:03;;;;;;;18.80;8.93;;;;;;;7.96;55.48;102459.41;1909428;75;21531;-61
2022/02/14 06:38:32;;;;;;;16.45;8.05;;;;;;;7.90;54.72;102456.81;1909616;75;21035;-60
2022/02/14 06:41:01;;;;;;;20.02;8.00;;;;;;;7.93;54.44;102455.50;1909367;75;21043;-62
2022/02/14 06:43:30;;;;;;;20.27;8.73;;;;;;;8.08;54.00;102445.43;1907528;75;21451;-61
2022/02/14 06:45:58;;;;;;;19.55;7.75;;;;;;;8.36;53.76;102443.62;1909468;75;21050;-61
2022/02/14 06:48:27;;;;;;;19.42;8.58;;;;;;;8.55;52.64;102438.34;1909477;75;21066;-60
2022/02/14 06:50:57;;;;;;;24.45;11.15;;;;;;;8.96;52.17;102439.91;1909459;75;21055;-60
2022/02/14 06:53:26;;;;;;;40.12;14.47;;;;;;;9.27;51.36;102430.96;1909371;75;21050;-62
2022/02/14 06:55:56;;;;;;;109.15;50.98;;;;;;;9.53;50.77;102437.80;1908172;75;21118;-60
2022/02/14 06:58:25;;;;;;;30.52;12.68;;;;;;;9.72;50.05;102435.92;1890754;75;20999;-60
2022/02/14 07:00:54;;;;;;;13.28;6.60;;;;;;;10.08;49.52;102436.45;1885133;76;21067;-60
2022/02/14 07:03:23;;;;;;;12.88;6.55;;;;;;;10.35;48.89;102430.06;1881652;75;21133;-59
2022/02/14 07:05:52;;;;;;;15.05;7.08;;;;;;;10.55;48.08;102425.00;1894506;75;21062;-69
2022/02/14 07:08:23;;;;;;;11.97;6.25;;;;;;;10.57;47.48;102425.42;1900569;75;21223;-65
2022/02/14 07:10:51;;;;;;;11.43;6.28;;;;;;;10.42;46.83;102425.16;1889019;75;21054;-65
2022/02/14 07:13:20;;;;;;;10.00;5.92;;;;;;;10.68;46.87;102419.13;1895851;75;21051;-68
2022/02/14 07:15:49;;;;;;;10.90;5.08;;;;;;;10.91;46.04;102413.58;1895741;75;21051;-70
2022/02/14 07:18:18;;;;;;;11.10;5.90;;;;;;;10.84;43.89;102410.59;1857119;77;21140;-70
2022/02/14 07:20:47;;;;;;;9.43;4.95;;;;;;;11.01;44.51;102404.62;1857072;77;21183;-68
2022/02/14 07:23:16;;;;;;;13.80;6.67;;;;;;;11.26;43.99;102404.29;1857265;77;21454;-71
2022/02/14 07:25:46;;;;;;;13.65;5.83;;;;;;;11.48;43.50;102404.37;1872399;75;21118;-68
2022/02/14 07:28:15;;;;;;;13.68;6.97;;;;;;;11.72;42.99;102397.80;1882195;75;21534;-66
2022/02/14 07:30:44;;;;;;;14.65;6.47;;;;;;;11.88;42.91;102390.50;1884971;76;21108;-67
2022/02/14 07:33:13;;;;;;;13.55;5.83;;;;;;;12.13;42.06;102386.10;1883880;76;21164;-68
2022/02/14 07:35:42;;;;;;;22.85;8.90;;;;;;;12.10;41.70;102384.86;1883984;76;21149;-67
2022/02/14 07:38:10;;;;;;;17.65;6.83;;;;;;;12.27;41.71;102378.78;1890960;76;21009;-71
2022/02/14 07:40:39;;;;;;;8.28;4.37;;;;;;;12.54;41.39;102384.39;1891357;76;21009;-70
2022/02/14 07:43:08;;;;;;;9.50;5.25;;;;;;;12.59;40.29;102382.53;1888513;76;21553;-74
2022/02/14 07:45:37;;;;;;;18.35;7.08;;;;;;;12.50;40.30;102388.00;1883748;76;21076;-73
2022/02/14 07:48:06;;;;;;;16.17;6.92;;;;;;;12.73;40.16;102379.14;1883861;76;21120;-64
2022/02/14 07:50:36;;;;;;;17.52;6.17;;;;;;;12.90;39.79;102376.58;1883960;76;21498;-63
2022/02/14 07:53:05;;;;;;;12.95;6.22;;;;;;;13.02;39.49;102377.62;1896586;75;21026;-64
2022/02/14 07:55:34;;;;;;;13.78;6.87;;;;;;;13.25;39.20;102373.56;1900586;75;21094;-62
2022/02/14 07:58:02;;;;;;;14.93;6.33;;;;;;;13.58;38.87;102370.56;1871941;74;21060;-63
2022/02/14 08:00:33;;;;;;;12.33;5.87;;;;;;;13.59;38.24;102372.28;1866704;76;21152;-66
2022/02/14 08:03:02;;;;;;;11.45;5.37;;;;;;;13.59;38.24;102364.80;1877184;76;21495;-63
2022/02/14 08:05:31;;;;;;;19.70;5.53;;;;;;;13.82;37.97;102372.16;1880263;76;21526;-64
2022/02/14 08:08:01;;;;;;;6.65;4.12;;;;;;;13.45;37.17;102362.06;1836165;77;21062;-64
2022/02/14 08:10:30;;;;;;;7.33;4.60;;;;;;;13.61;36.99;102366.95;1884945;76;21028;-64
2022/02/14 08:12:58;;;;;;;8.45;3.98;;;;;;;13.15;36.21;102370.28;1883695;76;21117;-60
2022/02/14 08:15:27;;;;;;;7.90;4.17;;;;;;;12.88;36.20;102366.03;1866115;77;21179;-61
2022/02/14 08:18:00;;;;;;;5.10;3.08;;;;;;;12.88;35.97;102370.00;1867983;76;21135;-60
2022/02/14 08:20:27;;;;;;;9.10;5.25;;;;;;;12.74;35.75;102362.39;1873687;76;21068;-62
2022/02/14 08:22:56;;;;;;;14.07;5.05;;;;;;;12.89;36.29;102365.14;1868888;76;21156;-61
2022/02/14 08:25:25;;;;;;;7.05;3.85;;;;;;;13.22;36.27;102359.08;1866841;76;21096;-61
2022/02/14 08:27:54;;;;;;;9.60;5.00;;;;;;;13.34;35.39;102358.82;1866785;77;21132;-61
2022/02/14 08:30:23;;;;;;;10.85;4.67;;;;;;;13.42;35.70;102355.52;1858533;77;21082;-60
2022/02/14 08:32:51;;;;;;;5.50;3.40;;;;;;;13.59;35.54;102355.08;1877660;76;21010;-59
2022/02/14 08:35:21;;;;;;;8.53;4.33;;;;;;;13.45;34.58;102355.45;1891424;76;21112;-59
2022/02/14 08:37:52;;;;;;;7.55;3.67;;;;;;;13.36;33.99;102350.39;1890787;76;21148;-61
2022/02/14 08:40:20;;;;;;;6.70;2.83;;;;;;;13.25;34.55;102355.05;1891276;76;21023;-59
2022/02/14 08:42:49;;;;;;;14.80;5.85;;;;;;;13.34;34.47;102352.67;1890943;76;21054;-60
2022/02/14 08:45:18;;;;;;;9.98;5.08;;;;;;;13.62;34.89;102347.53;1891340;76;21093;-59
2022/02/14 08:47:46;;;;;;;9.98;5.55;;;;;;;13.91;34.30;102340.14;1907400;74;21033;-58
2022/02/14 08:50:15;;;;;;;8.98;4.00;;;;;;;14.29;33.87;102337.73;1924412;74;21123;-63
2022/02/14 08:52:44;;;;;;;8.95;5.08;;;;;;;14.35;32.94;102334.47;1924720;74;21128;-64
2022/02/14 08:55:14;;;;;;;9.68;5.45;;;;;;;14.45;33.25;102328.85;1887727;74;21041;-71
2022/02/14 08:57:45;;;;;;;8.70;4.45;;;;;;;14.81;32.94;102322.05;1858191;74;21042;-67
2022/02/14 09:00:15;;;;;;;7.55;3.55;;;;;;;15.19;32.69;102319.06;1887479;74;21099;-67
2022/02/14 09:02:44;;;;;;;9.03;5.15;;;;;;;15.41;32.30;102312.11;1873391;76;21033;-67
2022/02/14 09:05:12;;;;;;;5.72;3.33;;;;;;;15.27;31.95;102311.73;1892943;74;21207;-68
2022/02/14 09:07:42;;;;;;;10.35;5.05;;;;;;;15.33;31.64;102307.53;1895396;74;21462;-64
2022/02/14 09:10:11;;;;;;;4.67;3.05;;;;;;;15.26;31.63;102296.72;1883228;76;21489;-63
2022/02/14 09:12:41;;;;;;;6.35;2.98;;;;;;;15.11;30.50;102289.28;1889059;74;21008;-75
2022/02/14 09:15:10;;;;;;;6.70;3.35;;;;;;;14.76;30.06;102292.16;1894857;75;21113;-64
2022/02/14 09:17:39;;;;;;;15.98;4.33;;;;;;;14.44;30.71;102292.68;1894329;75;21586;-66
2022/02/14 09:20:10;;;;;;;4.08;2.60;;;;;;;14.46;30.74;102283.36;1889904;76;21531;-63
2022/02/14 09:22:38;;;;;;;11.95;4.60;;;;;;;14.78;31.02;102284.16;1891284;76;21070;-64
2022/02/14 09:25:08;;;;;;;6.50;2.72;;;;;;;15.13;31.10;102272.38;1891326;76;21905;-63
2022/02/14 09:27:37;;;;;;;5.67;3.05;;;;;;;15.57;30.21;102263.34;1891196;76;21022;-67
2022/02/14 09:30:06;;;;;;;9.05;4.55;;;;;;;15.50;30.20;102270.25;1876026;76;21074;-64
2022/02/14 09:32:36;;;;;;;6.55;3.40;;;;;;;15.54;30.07;102258.59;1876363;76;21046;-64
2022/02/14 09:35:05;;;;;;;3.37;2.85;;;;;;;15.54;29.61;102250.63;1876826;76;21042;-66
2022/02/14 09:37:34;;;;;;;5.87;2.90;;;;;;;15.31;27.98;102249.67;1870717;76;21070;-63
2022/02/14 09:40:06;;;;;;;3.65;2.58;;;;;;;14.81;28.85;102246.48;1884938;76;21010;-66
2022/02/14 09:42:36;;;;;;;5.42;2.83;;;;;;;14.88;28.84;102244.47;1869411;76;21133;-63
2022/02/14 09:45:05;;;;;;;5.15;3.05;;;;;;;14.31;28.14;102238.77;1860427;76;21058;-64
2022/02/14 09:47:34;;;;;;;4.53;2.75;;;;;;;14.28;28.84;102250.34;1868014;75;21022;-62
2022/02/14 09:50:03;;;;;;;8.53;3.40;;;;;;;14.19;28.93;102231.61;1869919;77;21022;-61
2022/02/14 09:52:32;;;;;;;4.10;2.10;;;;;;;14.08;28.48;102236.36;1877507;76;21096;-64
2022/02/14 09:55:01;;;;;;;5.92;2.42;;;;;;;14.03;29.37;102231.19;1884775;76;21022;-60
2022/02/14 09:57:30;;;;;;;3.65;1.80;;;;;;;13.91;29.03;102228.92;1872718;76;21050;-62
2022/02/14 09:59:59;;;;;;;5.90;3.02;;;;;;;14.07;29.58;102225.34;1860925;76;21176;-69
2022/02/14 10:02:29;;;;;;;4.60;2.35;;;;;;;14.31;29.32;102224.19;1885703;76;21523;-64
2022/02/14 10:05:06;;;;;;;4.53;2.55;;;;;;;14.59;28.82;102217.58;1891295;76;21547;-62
2022/02/14 10:07:46;;;;;;;4.90;3.17;;;;;;;14.57;28.28;102210.11;1878489;76;21474;-63
2022/02/14 10:10:22;;;;;;;2.47;1.60;;;;;;;14.49;27.83;102215.20;1854727;76;21113;-66
2022/02/14 10:12:55;;;;;;;7.37;3.17;;;;;;;14.05;28.35;102230.72;1859947;76;21031;-63
2022/02/14 10:15:25;;;;;;;7.58;2.72;;;;;;;13.89;28.12;102224.99;1860829;77;21066;-69
2022/02/14 10:17:59;;;;;;;4.03;2.65;;;;;;;13.50;28.26;102208.02;1878006;76;21101;-69
2022/02/14 10:20:31;;;;;;;4.22;2.30;;;;;;;13.03;28.92;102219.38;1878093;76;21046;-69
2022/02/14 10:23:07;;;;;;;7.12;2.08;;;;;;;12.93;29.62;102205.99;1875525;76;21046;-69
2022/02/14 10:25:41;;;;;;;8.45;3.02;;;;;;;13.30;29.94;102203.27;1880930;76;21121;-70
2022/02/14 10:28:15;;;;;;;4.05;2.20;;;;;;;13.69;29.47;102196.91;1860986;76;21433;-64
2022/02/14 10:30:44;;;;;;;;;;;;;;;13.73;28.95;102192.39;1882324;76;21064;-68
2022/02/14 10:33:13;;;;;;;4.22;2.60;;;;;;;13.77;29.12;102189.59;1877333;76;20108;-62
2022/02/14 10:35:48;;;;;;;5.37;3.00;;;;;;;13.50;28.83;102196.11;1885558;76;21046;-62
2022/02/14 10:38:20;;;;;;;6.08;3.00;;;;;;;13.25;28.98;102189.73;1868349;76;21515;-62
2022/02/14 10:40:49;;;;;;;4.17;2.30;;;;;;;12.90;28.85;102186.23;1867036;76;21116;-63
2022/02/14 10:43:27;;;;;;;6.67;2.75;;;;;;;12.74;29.50;102185.31;1867508;76;21531;-63
2022/02/14 10:45:56;;;;;;;4.03;2.75;;;;;;;12.65;30.43;102185.54;1868900;76;21528;-64
2022/02/14 10:48:44;;;;;;;4.33;2.25;;;;;;;12.50;30.09;102179.28;1867379;77;21042;-67
2022/02/14 10:51:10;;;;;;;4.40;2.85;;;;;;;12.30;30.37;102174.05;1866212;76;21105;-68
2022/02/14 10:53:48;;;;;;;3.20;2.17;;;;;;;12.30;30.44;102168.76;1866652;77;21159;-65
2022/02/14 10:56:18;;;;;;;3.60;1.85;;;;;;;11.92;31.12;102178.41;1867355;77;21107;-65
2022/02/14 10:58:48;;;;;;;3.52;1.77;;;;;;;11.72;31.86;102180.56;1867501;77;21107;-66
2022/02/14 11:01:19;;;;;;;3.95;1.87;;;;;;;11.91;31.63;102171.83;1867452;76;21227;-65
2022/02/14 11:03:48;;;;;;;5.12;2.00;;;;;;;11.98;31.45;102159.78;1876079;76;21112;-67
2022/02/14 11:06:17;;;;;;;5.25;2.60;;;;;;;11.85;30.93;102156.97;1869306;76;21153;-67
2022/02/14 11:08:46;;;;;;;4.25;2.55;;;;;;;11.70;31.16;102161.27;1867329;77;21095;-67
2022/02/14 11:11:15;;;;;;;2.35;1.70;;;;;;;11.72;31.95;102164.73;1867444;76;21193;-67
2022/02/14 11:13:44;;;;;;;8.30;2.55;;;;;;;11.76;32.52;102156.70;1867547;76;21014;-65
2022/02/14 11:16:14;;;;;;;5.35;2.45;;;;;;;11.76;32.46;102147.47;1867904;76;21585;-66
2022/02/14 11:18:45;;;;;;;4.90;2.37;;;;;;;11.82;32.75;102151.74;1886141;75;21070;-68
2022/02/14 11:21:14;;;;;;;5.83;3.25;;;;;;;12.16;32.65;102151.04;1872349;76;21010;-66
2022/02/14 11:23:46;;;;;;;4.37;2.45;;;;;;;12.05;32.17;102142.50;1876337;76;21061;-63
2022/02/14 11:26:40;;;;;;;3.95;2.67;;;;;;;11.84;32.74;102141.16;1866457;77;21054;-62